Time;durP1;ratioP1;P1;durP2;ratioP2;P2;SDS_P1;SDS_P2;PMS_P1;PMS_P2;Temp;Humidity;BMP_temperature;BMP_pressure;BME280_temperature;BME280_humidity;BME280_pressure;Samples;Min_cycle;Max_cycle;Signal;HPM_P1;HPM_P2
2022/05/30 00:01:53;;;;;;;4.83;2.27;;;12.10;99.90;;;;;;5043956;28;20649;-79
2022/05/30 00:04:18;;;;;;;2.37;2.17;;;12.10;99.90;;;;;;5040135;28;20218;-73
2022/05/30 00:06:44;;;;;;;2.47;2.27;;;12.00;99.90;;;;;;5046503;28;20183;-71
2022/05/30 00:09:13;;;;;;;3.10;2.80;;;12.00;99.90;;;;;;5047678;28;20204;-75
2022/05/30 00:11:39;;;;;;;2.50;2.30;;;12.00;99.90;;;;;;5034521;28;20275;-70
2022/05/30 00:14:05;;;;;;;3.77;3.13;;;11.90;99.90;;;;;;5038770;28;20228;-71
2022/05/30 00:16:30;;;;;;;2.70;2.27;;;11.90;99.90;;;;;;5040187;28;20300;-70
2022/05/30 00:18:57;;;;;;;2.20;2.07;;;11.90;99.90;;;;;;5030194;28;20185;-71
2022/05/30 00:21:24;;;;;;;2.10;2.00;;;11.80;99.90;;;;;;5043075;28;20645;-70
2022/05/30 00:23:53;;;;;;;3.53;2.43;;;11.80;99.90;;;;;;5065953;28;20198;-72
2022/05/30 00:26:20;;;;;;;3.33;2.40;;;11.70;99.90;;;;;;5040604;28;20280;-71
2022/05/30 00:28:46;;;;;;;3.07;2.80;;;11.70;99.90;;;;;;5035741;28;20209;-73
2022/05/30 00:31:14;;;;;;;2.57;2.37;;;11.70;99.90;;;;;;5038427;28;20202;-76
2022/05/30 00:33:42;;;;;;;2.80;2.30;;;11.70;99.90;;;;;;5036359;28;20213;-77
2022/05/30 00:36:08;;;;;;;2.57;2.07;;;11.70;99.90;;;;;;5040875;28;20262;-74
2022/05/30 00:38:33;;;;;;;2.77;2.33;;;11.70;99.90;;;;;;5036805;28;20652;-76
2022/05/30 00:40:59;;;;;;;3.23;2.93;;;11.60;99.90;;;;;;5042260;28;20194;-75
2022/05/30 00:43:29;;;;;;;3.67;3.13;;;11.70;99.90;;;;;;5037404;28;20212;-76
2022/05/30 00:45:56;;;;;;;2.90;2.60;;;11.70;99.90;;;;;;5038646;28;20201;-74
2022/05/30 00:48:28;;;;;;;4.53;2.63;;;11.60;99.90;;;;;;5039242;28;20221;-74
2022/05/30 00:50:59;;;;;;;3.00;2.80;;;11.70;99.90;;;;;;5036546;28;20202;-76
2022/05/30 00:53:27;;;;;;;3.20;2.87;;;11.70;99.90;;;;;;5033876;28;20220;-75
2022/05/30 00:55:52;;;;;;;3.83;2.83;;;11.70;99.90;;;;;;5038748;28;20226;-74
2022/05/30 00:58:20;;;;;;;4.87;2.63;;;11.70;99.90;;;;;;5034650;28;20253;-79
2022/05/30 01:00:46;;;;;;;3.30;3.10;;;11.70;99.90;;;;;;5055117;28;20770;-77
2022/05/30 01:08:40;;;;;;;2.93;2.53;;;11.80;99.90;;;;;;5056252;28;20204;-79
2022/05/30 01:11:06;;;;;;;3.53;3.07;;;11.80;99.90;;;;;;5038020;28;20196;-78
2022/05/30 01:13:31;;;;;;;4.57;3.57;;;11.80;99.90;;;;;;5053448;28;20674;-77
2022/05/30 01:15:57;;;;;;;3.03;2.60;;;11.70;99.90;;;;;;5032732;28;20186;-75
2022/05/30 01:18:33;;;;;;;4.80;3.17;;;11.70;99.90;;;;;;5044903;28;20213;-77
2022/05/30 01:21:17;;;;;;;4.60;3.27;;;11.70;99.90;;;;;;5029853;28;20189;-77
2022/05/30 01:23:49;;;;;;;5.20;3.73;;;11.70;99.90;;;;;;5054552;28;20250;-77
2022/05/30 01:26:27;;;;;;;4.43;3.73;;;11.80;99.90;;;;;;5027481;28;20217;-78
2022/05/30 01:29:13;;;;;;;3.73;2.63;;;11.90;99.90;;;;;;5027469;28;20188;-76
2022/05/30 01:31:39;;;;;;;5.80;5.20;;;11.90;99.90;;;;;;5043504;28;20202;-78
2022/05/30 01:34:04;;;;;;;3.17;2.90;;;11.90;99.90;;;;;;5066378;28;20205;-77
2022/05/30 01:36:32;;;;;;;5.93;3.53;;;11.90;99.90;;;;;;5034728;28;20375;-74
2022/05/30 01:38:57;;;;;;;4.50;3.87;;;11.80;99.90;;;;;;5056449;28;20194;-75
2022/05/30 01:41:23;;;;;;;5.87;3.50;;;11.80;99.90;;;;;;5039235;28;20208;-74
2022/05/30 01:43:48;;;;;;;3.83;3.47;;;11.70;99.90;;;;;;5053172;28;20200;-76
2022/05/30 01:46:18;;;;;;;5.37;3.07;;;11.80;99.90;;;;;;5035710;28;20363;-77
2022/05/30 01:48:45;;;;;;;5.47;3.00;;;11.70;99.90;;;;;;5043178;28;20220;-78
2022/05/30 01:51:14;;;;;;;5.33;3.50;;;11.70;99.90;;;;;;5037977;28;20292;-78
2022/05/30 01:53:41;;;;;;;6.97;3.53;;;11.70;99.90;;;;;;5051610;28;20220;-80
2022/05/30 01:56:07;;;;;;;5.17;3.77;;;11.70;99.90;;;;;;5057217;28;20231;-77
2022/05/30 01:58:33;;;;;;;4.57;3.13;;;11.70;99.90;;;;;;5059441;28;20240;-78
2022/05/30 02:01:22;;;;;;;4.50;3.90;;;11.60;99.90;;;;;;5040905;28;20276;-78
2022/05/30 02:03:50;;;;;;;4.43;3.10;;;11.70;99.90;;;;;;5042082;28;20188;-79
2022/05/30 02:06:16;;;;;;;3.90;3.23;;;11.70;99.90;;;;;;5035895;28;20199;-78
2022/05/30 02:08:42;;;;;;;5.40;4.10;;;11.70;99.90;;;;;;5038000;28;20659;-78
2022/05/30 02:11:10;;;;;;;3.70;3.40;;;11.70;99.90;;;;;;5040252;28;20201;-77
2022/05/30 02:13:37;;;;;;;4.57;3.63;;;11.70;99.90;;;;;;5058650;28;20233;-78
2022/05/30 02:18:55;;;;;;;3.67;3.37;;;11.70;99.90;;;;;;5037768;28;20190;-73
2022/05/30 02:21:20;;;;;;;3.50;3.20;;;11.70;99.90;;;;;;5036699;28;20283;-74
2022/05/30 02:23:46;;;;;;;3.73;3.33;;;11.60;99.90;;;;;;5064114;28;20607;-74
2022/05/30 02:26:11;;;;;;;4.33;3.87;;;11.60;99.90;;;;;;5031110;28;20185;-75
2022/05/30 02:28:37;;;;;;;4.37;3.63;;;11.50;99.90;;;;;;5047257;28;20195;-75
2022/05/30 02:31:03;;;;;;;4.07;3.77;;;11.50;99.90;;;;;;5039784;28;20628;-75
2022/05/30 02:38:57;;;;;;;4.20;3.77;;;11.40;99.90;;;;;;5031350;28;20219;-74
2022/05/30 02:41:23;;;;;;;5.70;4.47;;;11.50;99.90;;;;;;5068280;28;20192;-79
2022/05/30 02:43:50;;;;;;;4.83;4.07;;;11.40;99.90;;;;;;5045496;28;20203;-78
2022/05/30 02:46:15;;;;;;;4.53;3.80;;;11.40;99.90;;;;;;5061554;28;20197;-76
2022/05/30 02:48:41;;;;;;;9.43;4.67;;;11.40;99.90;;;;;;5034343;28;20203;-76
2022/05/30 02:51:06;;;;;;;9.50;5.07;;;11.40;99.90;;;;;;5067879;28;20257;-76
2022/05/30 02:53:32;;;;;;;4.70;4.30;;;11.40;99.90;;;;;;5042448;28;20339;-76
2022/05/30 02:55:59;;;;;;;6.03;4.10;;;11.40;99.90;;;;;;5064435;28;20632;-76
2022/05/30 02:58:25;;;;;;;5.30;3.70;;;11.30;99.90;;;;;;5039221;28;20213;-75
2022/05/30 03:00:50;;;;;;;5.87;5.37;;;11.20;99.90;;;;;;5063692;28;20249;-75
2022/05/30 03:03:17;;;;;;;5.23;4.73;;;11.20;99.90;;;;;;5041149;28;20592;-74
2022/05/30 03:05:43;;;;;;;6.33;4.20;;;11.20;99.90;;;;;;5041546;28;20195;-74
2022/05/30 03:08:09;;;;;;;5.60;4.77;;;11.20;99.90;;;;;;5042756;28;20255;-74
2022/05/30 03:10:35;;;;;;;5.13;4.63;;;11.20;99.90;;;;;;5050908;28;20204;-73
2022/05/30 03:13:00;;;;;;;5.47;4.33;;;11.20;99.90;;;;;;5049765;28;20214;-74
2022/05/30 03:15:26;;;;;;;6.00;4.67;;;11.20;99.90;;;;;;5043177;28;20204;-75
2022/05/30 03:17:52;;;;;;;5.07;4.20;;;11.20;99.90;;;;;;5051566;28;20208;-74
2022/05/30 03:20:18;;;;;;;5.10;4.60;;;11.10;99.90;;;;;;5049351;28;20203;-74
2022/05/30 03:22:44;;;;;;;6.33;5.70;;;11.10;99.90;;;;;;5054111;28;20275;-74
2022/05/30 03:25:10;;;;;;;5.47;4.93;;;11.10;99.90;;;;;;5042665;28;20480;-74
2022/05/30 03:27:36;;;;;;;8.10;5.17;;;11.10;99.90;;;;;;5052139;28;20203;-73
2022/05/30 03:30:02;;;;;;;8.27;6.03;;;11.10;99.90;;;;;;5049966;28;20225;-73
2022/05/30 03:32:28;;;;;;;6.83;6.20;;;11.00;99.90;;;;;;5061466;28;20201;-73
2022/05/30 03:34:53;;;;;;;6.90;6.30;;;11.00;99.90;;;;;;5047805;28;20276;-73
2022/05/30 03:37:19;;;;;;;7.77;6.83;;;10.90;99.90;;;;;;5041779;28;20268;-73
2022/05/30 03:39:44;;;;;;;7.03;6.37;;;10.90;99.90;;;;;;5053207;28;20204;-73
2022/05/30 03:42:13;;;;;;;7.90;7.10;;;10.90;99.90;;;;;;5034447;28;20222;-72
2022/05/30 03:44:39;;;;;;;9.63;7.80;;;10.80;99.90;;;;;;5041854;28;20206;-73
2022/05/30 03:47:05;;;;;;;11.70;8.90;;;10.80;99.90;;;;;;5038730;28;20214;-73
2022/05/30 03:49:31;;;;;;;12.80;8.90;;;10.80;99.90;;;;;;5050909;28;20200;-73
2022/05/30 03:51:58;;;;;;;12.33;8.63;;;10.80;99.90;;;;;;5034015;28;20195;-72
2022/05/30 03:54:24;;;;;;;13.03;9.27;;;10.80;99.90;;;;;;5042720;28;20315;-72
2022/05/30 03:56:50;;;;;;;12.40;8.00;;;10.80;99.90;;;;;;5035200;28;20303;-71
2022/05/30 03:59:15;;;;;;;11.63;7.63;;;10.80;99.90;;;;;;5060813;28;20234;-71
2022/05/30 04:01:42;;;;;;;9.43;6.60;;;10.70;99.90;;;;;;5040310;28;20667;-72
2022/05/30 04:04:07;;;;;;;13.07;9.30;;;10.70;99.90;;;;;;5053856;28;20197;-68
2022/05/30 04:06:33;;;;;;;10.30;7.30;;;10.60;99.90;;;;;;5038108;28;20188;-71
2022/05/30 04:08:58;;;;;;;10.83;6.73;;;10.60;99.90;;;;;;5044361;28;20188;-73
2022/05/30 04:11:24;;;;;;;14.60;6.33;;;10.60;99.90;;;;;;5029130;28;20191;-74
2022/05/30 04:13:49;;;;;;;9.00;5.73;;;10.50;99.90;;;;;;5065762;28;20196;-74
2022/05/30 04:16:15;;;;;;;8.73;5.77;;;10.40;99.90;;;;;;5037135;28;20212;-74
2022/05/30 04:18:41;;;;;;;12.33;6.57;;;10.40;99.90;;;;;;5040382;28;20191;-75
2022/05/30 04:21:09;;;;;;;10.60;6.60;;;10.40;99.90;;;;;;5045171;28;20249;-72
2022/05/30 04:23:34;;;;;;;11.23;7.17;;;10.40;99.90;;;;;;5056158;28;20197;-72
2022/05/30 04:26:03;;;;;;;12.63;6.03;;;10.50;99.90;;;;;;5033999;28;20598;-72
2022/05/30 04:28:29;;;;;;;6.60;5.50;;;10.50;99.90;;;;;;5048486;28;20192;-74
2022/05/30 04:30:55;;;;;;;9.17;4.93;;;10.50;99.90;;;;;;5044714;28;20285;-74
2022/05/30 04:33:20;;;;;;;14.67;5.90;;;10.60;99.90;;;;;;5053501;28;20231;-73
2022/05/30 04:35:46;;;;;;;6.53;5.00;;;10.60;99.90;;;;;;5039347;28;20206;-73
2022/05/30 04:38:11;;;;;;;14.77;6.23;;;10.60;99.90;;;;;;5055280;28;20770;-73
2022/05/30 04:40:37;;;;;;;12.07;6.23;;;10.70;99.90;;;;;;5040716;28;20261;-73
2022/05/30 04:43:02;;;;;;;12.37;6.40;;;10.80;99.90;;;;;;5046927;28;20920;-73
2022/05/30 04:45:28;;;;;;;11.13;6.00;;;10.80;99.90;;;;;;5036631;28;20288;-74
2022/05/30 04:47:53;;;;;;;11.17;6.63;;;10.90;99.90;;;;;;5037714;28;20211;-74
2022/05/30 04:50:19;;;;;;;12.13;6.13;;;11.00;99.90;;;;;;5039590;28;20667;-73
2022/05/30 04:52:46;;;;;;;8.60;4.80;;;11.00;99.90;;;;;;5054327;28;20299;-73
2022/05/30 04:55:15;;;;;;;10.23;5.33;;;11.00;99.90;;;;;;5041850;28;20288;-75
2022/05/30 04:57:45;;;;;;;11.07;5.50;;;11.00;99.90;;;;;;5044483;28;20216;-76
2022/05/30 05:00:12;;;;;;;15.13;6.07;;;11.00;99.90;;;;;;5049300;28;20215;-76
2022/05/30 05:02:38;;;;;;;14.07;4.57;;;11.00;99.90;;;;;;5049309;28;20197;-75
2022/05/30 05:05:04;;;;;;;5.87;5.33;;;11.10;99.90;;;;;;5044830;28;20306;-77
2022/05/30 05:07:38;;;;;;;6.67;5.07;;;11.10;99.90;;;;;;5066367;28;20200;-77
2022/05/30 05:10:24;;;;;;;9.87;5.57;;;11.20;99.90;;;;;;5024941;28;20211;-74
2022/05/30 05:12:51;;;;;;;13.63;5.10;;;11.30;99.90;;;;;;5034113;28;20298;-75
2022/05/30 05:15:16;;;;;;;6.97;4.47;;;11.30;99.90;;;;;;5036067;28;20311;-74
2022/05/30 05:17:42;;;;;;;11.43;5.10;;;11.40;99.90;;;;;;5042183;28;20301;-74
2022/05/30 05:20:08;;;;;;;8.47;4.13;;;11.50;99.90;;;;;;5041121;28;20265;-75
2022/05/30 05:22:33;;;;;;;5.83;4.20;;;11.60;99.90;;;;;;5051059;28;20201;-76
2022/05/30 05:25:00;;;;;;;5.17;3.77;;;11.70;99.90;;;;;;5045111;28;20197;-75
2022/05/30 05:27:25;;;;;;;9.43;4.83;;;12.00;99.90;;;;;;5060548;28;20195;-74
2022/05/30 05:29:55;;;;;;;8.80;3.87;;;12.10;99.90;;;;;;5046828;28;20210;-74
2022/05/30 05:32:23;;;;;;;11.30;5.10;;;12.30;99.90;;;;;;5045001;28;20207;-74
2022/05/30 05:34:50;;;;;;;8.37;4.67;;;12.30;99.90;;;;;;5051131;28;20241;-74
2022/05/30 05:37:17;;;;;;;11.43;4.63;;;12.50;99.90;;;;;;5042284;28;20390;-74
2022/05/30 05:39:42;;;;;;;8.30;3.67;;;12.40;99.90;;;;;;5051538;28;20208;-74
2022/05/30 05:42:08;;;;;;;7.77;4.73;;;12.60;99.90;;;;;;5037209;28;20187;-74
2022/05/30 05:44:34;;;;;;;6.57;4.00;;;12.60;99.90;;;;;;5057380;28;20202;-75
2022/05/30 05:47:00;;;;;;;6.93;3.40;;;12.60;99.90;;;;;;5028581;28;20193;-74
2022/05/30 05:49:26;;;;;;;5.60;4.10;;;12.60;99.90;;;;;;5052896;28;20187;-76
2022/05/30 05:51:55;;;;;;;8.63;4.10;;;12.60;99.90;;;;;;5029338;28;20210;-75
2022/05/30 05:54:23;;;;;;;8.00;3.97;;;12.60;99.90;;;;;;5051498;28;20547;-75
2022/05/30 05:56:49;;;;;;;7.67;3.20;;;12.50;99.90;;;;;;5038529;28;20217;-77
2022/05/30 05:59:15;;;;;;;8.63;4.07;;;12.40;99.90;;;;;;5057224;28;20203;-75
2022/05/30 06:01:40;;;;;;;15.27;5.33;;;12.40;99.90;;;;;;5025800;28;20178;-77
2022/05/30 06:04:08;;;;;;;7.23;4.73;;;12.40;99.90;;;;;;5035331;28;20736;-71
2022/05/30 06:06:33;;;;;;;4.13;3.73;;;12.30;99.90;;;;;;5030161;28;20191;-73
2022/05/30 06:09:01;;;;;;;9.60;4.67;;;12.20;99.90;;;;;;5060679;28;20655;-72
2022/05/30 06:11:27;;;;;;;7.37;4.03;;;12.10;99.90;;;;;;5040171;28;20208;-75
2022/05/30 06:13:54;;;;;;;7.97;5.10;;;12.10;99.90;;;;;;5054417;28;20237;-78
2022/05/30 06:16:23;;;;;;;7.93;3.67;;;12.10;99.90;;;;;;5046118;28;20619;-77
2022/05/30 06:18:50;;;;;;;5.13;4.30;;;12.00;99.90;;;;;;5033336;28;20186;-76
2022/05/30 06:21:16;;;;;;;7.33;3.80;;;11.80;99.90;;;;;;5032749;28;20199;-78
2022/05/30 06:23:44;;;;;;;6.50;3.90;;;11.80;99.90;;;;;;5053985;28;20201;-78
2022/05/30 06:26:10;;;;;;;5.17;3.90;;;11.70;99.90;;;;;;5025165;28;20200;-78
2022/05/30 06:28:37;;;;;;;7.97;3.57;;;11.70;99.90;;;;;;5054639;28;20565;-78
2022/05/30 06:31:11;;;;;;;8.23;3.80;;;11.70;99.90;;;;;;5036359;28;20443;-76
2022/05/30 06:33:38;;;;;;;8.50;4.83;;;11.80;99.90;;;;;;5053941;28;20213;-76
2022/05/30 06:36:05;;;;;;;13.53;4.67;;;11.80;99.90;;;;;;5031740;28;21113;-76
2022/05/30 06:38:31;;;;;;;9.93;4.03;;;11.90;99.90;;;;;;5033891;28;20226;-76
2022/05/30 06:40:56;;;;;;;7.63;3.90;;;11.90;99.90;;;;;;5059591;28;20188;-75
2022/05/30 06:43:22;;;;;;;7.63;4.60;;;11.90;99.90;;;;;;5038261;28;20195;-77
2022/05/30 06:45:48;;;;;;;406.80;366.50;;;12.10;99.90;;;;;;5056754;28;20198;-76
2022/05/30 06:48:14;;;;;;;157.03;141.23;;;12.20;99.90;;;;;;5050065;28;20319;-77
2022/05/30 06:50:39;;;;;;;105.87;94.20;;;12.40;99.90;;;;;;5062615;28;20201;-78
2022/05/30 06:53:06;;;;;;;345.80;315.70;;;12.50;99.90;;;;;;5041540;28;20294;-77
2022/05/30 06:55:32;;;;;;;17.13;8.30;;;12.50;99.90;;;;;;5047350;28;20201;-76
2022/05/30 06:58:13;;;;;;;7.80;5.30;;;12.70;99.90;;;;;;5040773;28;20289;-76
2022/05/30 07:00:38;;;;;;;42.40;36.60;;;12.70;99.90;;;;;;5041625;28;20345;-77
2022/05/30 07:03:04;;;;;;;443.63;400.53;;;12.80;99.90;;;;;;5061327;28;20693;-77
2022/05/30 07:05:29;;;;;;;283.23;253.43;;;12.80;99.90;;;;;;5061513;28;20584;-76
2022/05/30 07:07:58;;;;;;;374.77;331.90;;;12.70;99.90;;;;;;5061804;28;20201;-76
2022/05/30 07:10:26;;;;;;;309.37;279.27;;;12.50;99.90;;;;;;5051093;28;20202;-77
2022/05/30 07:12:52;;;;;;;522.23;428.37;;;12.40;99.90;;;;;;5064347;28;20205;-77
2022/05/30 07:15:18;;;;;;;518.47;466.17;;;12.40;99.90;;;;;;5046410;28;20256;-77
2022/05/30 07:17:44;;;;;;;559.97;500.57;;;12.50;99.90;;;;;;5045860;28;20617;-77
2022/05/30 07:20:10;;;;;;;530.60;474.53;;;12.60;99.90;;;;;;5049832;28;20214;-77
2022/05/30 07:22:36;;;;;;;17.53;6.53;;;12.60;99.90;;;;;;5039092;28;20287;-77
2022/05/30 07:25:01;;;;;;;11.53;6.23;;;12.70;99.90;;;;;;5053688;28;20683;-77
2022/05/30 07:27:27;;;;;;;41.20;37.53;;;12.70;99.90;;;;;;5054737;28;20698;-77
2022/05/30 07:29:52;;;;;;;67.60;53.97;;;12.70;99.90;;;;;;5052467;28;20272;-77
2022/05/30 07:32:18;;;;;;;15.83;7.00;;;12.70;99.90;;;;;;5055278;28;20198;-77
2022/05/30 07:34:44;;;;;;;98.20;89.37;;;12.80;99.90;;;;;;5037945;28;20231;-78
2022/05/30 07:37:09;;;;;;;269.00;242.53;;;12.80;99.90;;;;;;5061722;28;20214;-77
2022/05/30 07:39:36;;;;;;;67.47;60.87;;;12.70;99.90;;;;;;5039269;28;20828;-76
2022/05/30 07:42:04;;;;;;;547.70;500.60;;;12.60;99.90;;;;;;5045749;28;20285;-75
2022/05/30 07:44:30;;;;;;;470.00;434.47;;;12.60;99.90;;;;;;5039382;28;20182;-76
2022/05/30 07:46:56;;;;;;;363.10;335.83;;;12.70;99.90;;;;;;5049869;28;20300;-77
2022/05/30 07:49:22;;;;;;;8.60;4.27;;;12.70;99.90;;;;;;5036806;28;20194;-77
2022/05/30 07:51:48;;;;;;;7.70;6.43;;;12.70;99.90;;;;;;5052109;28;20653;-77
2022/05/30 07:54:13;;;;;;;41.03;35.77;;;12.80;99.90;;;;;;5049020;28;20221;-78
2022/05/30 07:56:39;;;;;;;539.03;492.70;;;12.90;99.90;;;;;;5048307;28;20214;-78
2022/05/30 07:59:05;;;;;;;534.87;487.40;;;13.10;99.90;;;;;;5036291;28;20202;-77
2022/05/30 08:01:31;;;;;;;295.63;266.07;;;13.20;99.90;;;;;;5039019;28;20558;-77
2022/05/30 08:03:56;;;;;;;7.70;4.57;;;13.30;99.90;;;;;;5027813;28;20217;-79
2022/05/30 08:06:26;;;;;;;4.63;4.23;;;13.50;99.90;;;;;;5061353;28;20234;-79
2022/05/30 08:08:52;;;;;;;11.23;3.63;;;13.70;99.90;;;;;;5040222;28;20235;-79
2022/05/30 08:11:22;;;;;;;9.67;4.23;;;13.90;99.90;;;;;;5068388;28;20205;-77
2022/05/30 08:13:48;;;;;;;7.93;4.90;;;14.10;99.90;;;;;;5046037;28;20203;-77
2022/05/30 08:16:20;;;;;;;8.67;4.53;;;14.30;99.90;;;;;;5067097;28;20206;-77
2022/05/30 08:18:45;;;;;;;9.90;5.10;;;14.30;99.90;;;;;;5034944;28;20199;-76
2022/05/30 08:21:11;;;;;;;7.47;5.00;;;14.40;99.90;;;;;;5060227;28;20195;-75
2022/05/30 08:23:37;;;;;;;6.87;3.30;;;14.70;99.90;;;;;;5039136;28;20221;-75
2022/05/30 08:26:02;;;;;;;108.07;98.27;;;15.00;99.90;;;;;;5056872;28;20302;-75
2022/05/30 08:28:29;;;;;;;156.40;140.40;;;14.80;99.90;;;;;;5035969;28;20208;-74
2022/05/30 08:30:55;;;;;;;20.37;7.97;;;14.90;99.90;;;;;;5062064;28;20206;-72
2022/05/30 08:33:22;;;;;;;10.90;4.77;;;14.90;99.90;;;;;;5036582;28;20264;-73
2022/05/30 08:36:01;;;;;;;80.60;69.07;;;14.70;99.90;;;;;;5066487;28;20205;-73
2022/05/30 08:38:33;;;;;;;13.60;5.50;;;14.50;99.90;;;;;;5025353;28;20214;-73
2022/05/30 08:43:43;;;;;;;10.67;4.60;;;14.70;99.90;;;;;;5032536;28;20255;-75
2022/05/30 08:46:11;;;;;;;3.87;3.30;;;14.80;99.90;;;;;;5057448;28;20226;-75
2022/05/30 08:48:46;;;;;;;5.70;3.10;;;14.50;99.90;;;;;;5040019;28;20211;-75
2022/05/30 08:51:32;;;;;;;8.87;5.23;;;14.30;99.90;;;;;;5026969;28;20191;-74
2022/05/30 08:54:30;;;;;;;15.07;6.50;;;14.00;99.90;;;;;;5052245;28;20311;-74
2022/05/30 08:56:58;;;;;;;6.93;5.50;;;14.00;99.90;;;;;;5039628;28;20699;-70
2022/05/30 09:00:01;;;;;;;4.27;2.57;;;14.20;99.90;;;;;;5035179;28;20256;-72
2022/05/30 09:02:34;;;;;;;5.13;3.03;;;14.40;99.90;;;;;;5036563;28;20564;-73
2022/05/30 09:05:17;;;;;;;4.63;2.80;;;14.70;99.90;;;;;;5032367;28;20187;-77
2022/05/30 09:07:49;;;;;;;4.83;2.90;;;15.00;99.90;;;;;;5034735;28;20336;-75
2022/05/30 09:10:20;;;;;;;6.77;2.70;;;15.10;99.90;;;;;;5038449;28;20315;-76
2022/05/30 09:13:00;;;;;;;6.10;2.80;;;15.00;99.90;;;;;;5047130;28;20753;-75
2022/05/30 09:15:35;;;;;;;5.50;2.50;;;15.10;99.90;;;;;;5036483;28;20195;-74
2022/05/30 09:18:03;;;;;;;4.13;2.10;;;14.90;99.90;;;;;;5030291;28;20242;-76
2022/05/30 09:20:31;;;;;;;4.60;2.80;;;14.80;99.90;;;;;;5044398;28;20192;-71
2022/05/30 09:22:56;;;;;;;511.80;472.60;;;14.80;99.80;;;;;;5043171;28;20192;-71
2022/05/30 09:28:11;;;;;;;3.77;2.13;;;14.80;99.40;;;;;;5037628;28;20213;-71
2022/05/30 09:30:48;;;;;;;2.63;2.30;;;14.80;99.60;;;;;;5064521;28;20505;-71
2022/05/30 09:33:31;;;;;;;4.70;2.37;;;14.90;99.70;;;;;;5024083;28;20287;-71
2022/05/30 09:36:13;;;;;;;7.17;2.87;;;14.90;99.70;;;;;;5030956;28;20273;-73
2022/05/30 09:38:44;;;;;;;5.97;2.73;;;14.90;99.70;;;;;;5031241;28;20235;-71
2022/05/30 09:41:14;;;;;;;7.37;2.20;;;14.90;99.40;;;;;;5036081;28;20191;-69
2022/05/30 09:43:47;;;;;;;3.63;2.40;;;14.90;99.90;;;;;;5037433;28;20233;-72
2022/05/30 09:46:37;;;;;;;5.97;2.73;;;14.90;99.90;;;;;;5035857;28;20186;-72
2022/05/30 09:49:19;;;;;;;3.97;2.13;;;15.10;99.90;;;;;;5033186;28;20203;-73
2022/05/30 09:51:51;;;;;;;3.80;2.47;;;15.40;99.90;;;;;;5034261;28;20179;-72
2022/05/30 09:54:26;;;;;;;1.70;1.57;;;15.70;98.90;;;;;;5036535;28;20215;-73
2022/05/30 09:56:59;;;;;;;2.77;1.60;;;16.00;97.40;;;;;;5031989;28;20214;-70
2022/05/30 09:59:34;;;;;;;3.00;1.60;;;16.10;96.50;;;;;;5038074;28;20179;-72
2022/05/30 10:02:00;;;;;;;1.67;1.37;;;16.40;94.80;;;;;;5032869;28;20217;-72
2022/05/30 10:04:42;;;;;;;2.63;1.67;;;16.50;94.20;;;;;;5051590;28;20198;-71
2022/05/30 10:07:19;;;;;;;3.50;1.97;;;16.50;94.70;;;;;;5025258;28;20870;-70
2022/05/30 10:10:00;;;;;;;3.47;2.00;;;16.50;94.80;;;;;;5051826;28;20384;-68
2022/05/30 10:12:38;;;;;;;1.73;1.40;;;16.50;94.10;;;;;;5025289;28;20180;-70
2022/05/30 10:15:25;;;;;;;2.93;2.40;;;16.50;93.20;;;;;;5031779;28;20225;-72
2022/05/30 10:17:52;;;;;;;76.63;69.57;;;16.70;91.60;;;;;;5060092;28;20208;-72
2022/05/30 10:20:47;;;;;;;159.80;146.23;;;16.60;91.40;;;;;;5051610;28;20227;-77
2022/05/30 10:29:29;;;;;;;3.83;1.63;;;16.60;92.20;;;;;;5038375;28;20221;-71
2022/05/30 10:32:16;;;;;;;1.70;1.10;;;16.80;91.10;;;;;;5040904;28;20747;-70
2022/05/30 10:35:00;;;;;;;68.87;62.00;;;16.70;91.20;;;;;;5028908;28;20203;-70
2022/05/30 10:37:50;;;;;;;6.63;3.93;;;16.50;90.90;;;;;;5029557;28;20303;-68
2022/05/30 10:40:41;;;;;;;6.30;1.77;;;16.50;91.20;;;;;;5029391;28;20194;-70
2022/05/30 10:43:35;;;;;;;68.03;61.20;;;16.50;91.20;;;;;;5020448;28;20234;-70
2022/05/30 10:46:07;;;;;;;45.57;40.63;;;16.60;91.00;;;;;;5034339;28;20198;-70
2022/05/30 10:48:40;;;;;;;5.03;2.73;;;16.60;90.90;;;;;;5032928;28;20211;-70
2022/05/30 10:51:22;;;;;;;15.03;8.77;;;16.70;89.60;;;;;;5034692;28;20611;-71
2022/05/30 10:53:51;;;;;;;2.13;1.93;;;16.60;90.30;;;;;;5035229;28;20559;-70
2022/05/30 10:56:26;;;;;;;2.43;1.83;;;16.50;90.10;;;;;;5056426;28;20205;-70
2022/05/30 10:59:03;;;;;;;1.70;1.23;;;16.40;88.40;;;;;;5043142;28;20232;-70
2022/05/30 11:01:41;;;;;;;2.10;1.13;;;16.50;88.60;;;;;;5035939;28;20558;-71
2022/05/30 11:04:28;;;;;;;2.83;1.37;;;16.80;88.20;;;;;;5038521;28;20892;-72
2022/05/30 11:06:57;;;;;;;2.93;1.40;;;17.30;82.20;;;;;;5041877;28;20380;-69
2022/05/30 11:09:43;;;;;;;2.50;1.27;;;17.70;81.00;;;;;;5043603;28;20207;-72
2022/05/30 11:12:18;;;;;;;2.10;1.90;;;17.80;80.00;;;;;;5043004;28;20245;-71
2022/05/30 11:15:24;;;;;;;3.90;2.50;;;18.50;78.30;;;;;;5030746;28;20210;-72
2022/05/30 11:18:10;;;;;;;4.30;3.47;;;19.00;81.10;;;;;;5038646;28;20209;-68
2022/05/30 11:20:45;;;;;;;2.50;2.00;;;19.60;75.50;;;;;;5042754;28;20274;-72
2022/05/30 11:23:11;;;;;;;3.20;1.60;;;19.60;74.50;;;;;;5040350;28;20308;-78
2022/05/30 11:26:14;;;;;;;3.10;1.63;;;19.50;73.50;;;;;;5038762;28;20176;-70
2022/05/30 11:29:03;;;;;;;7.73;3.10;;;18.90;75.10;;;;;;5045400;28;20200;-70
2022/05/30 11:31:41;;;;;;;3.60;2.33;;;18.40;77.20;;;;;;5042971;28;20196;-69
2022/05/30 11:34:19;;;;;;;1.23;1.10;;;18.10;78.70;;;;;;5042158;28;20204;-72
2022/05/30 11:37:04;;;;;;;2.80;1.70;;;17.80;80.80;;;;;;5035090;28;20213;-70
2022/05/30 11:39:53;;;;;;;4.00;1.70;;;17.40;79.80;;;;;;5034104;28;20287;-71
2022/05/30 11:42:19;;;;;;;6.47;1.83;;;17.10;82.50;;;;;;5036051;28;20852;-71
2022/05/30 11:44:59;;;;;;;2.33;1.63;;;17.10;82.60;;;;;;5033865;28;20195;-72
2022/05/30 11:47:36;;;;;;;4.37;1.97;;;16.90;82.40;;;;;;5042664;28;20294;-71
2022/05/30 11:50:23;;;;;;;1.57;1.20;;;16.90;82.80;;;;;;5032035;28;20202;-71
2022/05/30 11:53:10;;;;;;;7.30;2.77;;;17.00;83.80;;;;;;5029951;28;20183;-71
2022/05/30 11:55:58;;;;;;;2.47;1.07;;;16.90;84.10;;;;;;5030881;28;20658;-70
2022/05/30 11:58:39;;;;;;;5.37;2.10;;;17.00;84.30;;;;;;5036696;28;20289;-72
2022/05/30 12:01:05;;;;;;;3.57;2.90;;;17.00;83.30;;;;;;5044279;28;20274;-70
2022/05/30 12:03:54;;;;;;;114.23;106.57;;;17.00;81.80;;;;;;5046856;28;20575;-69
2022/05/30 12:06:58;;;;;;;32.83;29.87;;;16.90;81.30;;;;;;5035581;28;20202;-71
2022/05/30 12:09:37;;;;;;;71.53;65.20;;;17.40;82.00;;;;;;5049977;28;20565;-71
2022/05/30 12:12:14;;;;;;;87.33;78.13;;;18.50;80.20;;;;;;5041104;28;20183;-70
2022/05/30 12:14:47;;;;;;;73.30;65.77;;;19.90;74.20;;;;;;5037788;28;20255;-71
2022/05/30 12:17:32;;;;;;;122.03;111.07;;;20.60;70.20;;;;;;5067075;28;20209;-71
2022/05/30 12:25:55;;;;;;;2.17;1.57;;;21.10;65.80;;;;;;5050724;28;20351;-71
2022/05/30 12:28:26;;;;;;;1.50;1.40;;;20.40;67.40;;;;;;5050784;28;20257;-72
2022/05/30 12:30:56;;;;;;;3.47;1.63;;;20.80;67.60;;;;;;5045243;28;20200;-72
2022/05/30 12:33:31;;;;;;;1.73;1.60;;;21.70;63.90;;;;;;5057265;28;20219;-72
2022/05/30 12:36:08;;;;;;;1.67;1.20;;;21.90;61.80;;;;;;5053733;28;20187;-71
2022/05/30 12:39:00;;;;;;;4.77;1.60;;;21.10;62.80;;;;;;5037677;28;20215;-71
2022/05/30 12:41:35;;;;;;;2.20;1.53;;;20.50;64.40;;;;;;5027407;28;20188;-72
2022/05/30 12:44:01;;;;;;;3.10;1.10;;;20.90;64.50;;;;;;5036491;28;20226;-70
2022/05/30 12:46:29;;;;;;;1.63;1.47;;;21.90;62.30;;;;;;5064096;28;20225;-70
2022/05/30 12:49:16;;;;;;;2.50;1.50;;;21.80;62.10;;;;;;5041149;28;20250;-72
2022/05/30 12:52:04;;;;;;;4.37;2.63;;;21.40;60.40;;;;;;5043577;28;20187;-69
2022/05/30 12:54:43;;;;;;;1.70;1.43;;;20.80;63.10;;;;;;5030158;28;20313;-71
2022/05/30 12:57:30;;;;;;;3.80;2.30;;;21.20;63.80;;;;;;5038731;28;20229;-72
2022/05/30 13:00:02;;;;;;;3.13;1.43;;;21.70;61.70;;;;;;5045170;28;20218;-72
2022/05/30 13:02:44;;;;;;;1.57;1.00;;;21.90;59.60;;;;;;5036872;28;20273;-72
2022/05/30 13:05:42;;;;;;;0.97;0.97;;;21.50;61.40;;;;;;5033136;28;20531;-71
2022/05/30 13:08:45;;;;;;;58.60;52.30;;;21.90;60.20;;;;;;5033983;28;20219;-72
2022/05/30 13:11:13;;;;;;;9.40;6.90;;;22.40;57.40;;;;;;5049620;28;20195;-72
2022/05/30 13:13:46;;;;;;;34.22;28.48;;;22.50;57.70;;;;;;5035219;28;20253;-73
2022/05/30 13:16:26;;;;;;;66.45;61.63;;;22.40;56.70;;;;;;5044173;28;20461;-72
2022/05/30 13:18:53;;;;;;;74.57;68.67;;;22.10;56.90;;;;;;5048424;28;20207;-73
2022/05/30 13:21:28;;;;;;;32.35;29.13;;;22.40;57.40;;;;;;5057715;28;20231;-73
2022/05/30 13:23:53;;;;;;;534.58;498.60;;;22.60;57.10;;;;;;5037966;28;20194;-73
2022/05/30 13:26:19;;;;;;;228.68;210.45;;;22.50;57.00;;;;;;5044680;28;20195;-70
2022/05/30 13:28:49;;;;;;;26.85;20.48;;;23.00;57.30;;;;;;5042661;28;20271;-73
2022/05/30 13:31:14;;;;;;;18.08;10.27;;;22.70;55.40;;;;;;5038391;28;20746;-72